Data for 05/06/2018

Time Sea-Level Adjusted Pressure Absolute Pressure Temperature Relative Humidity Dew Point   
(mb) (inHg) (mb) (inHg) (C) (F) (%) (C) (F)
00:05 1023 30.21 853 25.19 10.4 50.7 67 4.6 40.2
00:10 1023 30.21 853 25.19 10.5 51 66 4.5 40
00:15 1024 30.24 853 25.19 10.6 51.2 66 4.5 40.2
00:20 1024 30.24 853 25.19 10.3 50.6 67 4.5 40.1
00:25 1024 30.24 853 25.19 9.9 49.9 68 4.4 40
00:30 1024 30.24 853 25.19 9.6 49.2 68 4.1 39.3
00:35 1024 30.24 853 25.19 9.7 49.5 66 3.8 38.9
00:40 1024 30.24 853 25.19 10.3 50.5 65 4.1 39.4
00:45 1024 30.24 853 25.19 10.3 50.6 64 3.9 39.1
00:50 1024 30.24 853 25.19 10.3 50.5 65 4.1 39.4
00:55 1024 30.24 853 25.19 9.9 49.8 66 3.9 39.1
01:00 1024 30.24 853 25.19 9.7 49.4 66 3.6 38.4
01:05 1024 30.24 853 25.19 9.8 49.6 65 3.6 38.5
01:10 1024 30.24 853 25.19 9.8 49.6 66 3.7 38.7
01:15 1024 30.24 853 25.19 10 49.9 66 3.9 39.1
01:20 1024 30.24 853 25.19 9.9 49.8 65 3.8 38.8
01:25 1024 30.24 853 25.19 9.8 49.7 64 3.4 38.2
01:30 1023 30.21 853 25.19 9.7 49.5 65 3.5 38.3
01:35 1023 30.21 853 25.19 9.5 49.1 66 3.5 38.4
01:40 1023 30.21 853 25.19 9.3 48.8 66 3.4 38.2
01:45 1024 30.24 853 25.19 9.5 49.1 66 3.6 38.4
01:50 1024 30.24 853 25.19 9.1 48.4 68 3.6 38.5
01:55 1023 30.21 853 25.19 9 48.3 68 3.5 38.3
02:00 1023 30.21 853 25.19 9 48.1 68 3.5 38.3
02:05 1024 30.24 853 25.19 9 48.2 67 3.3 38
02:10 1023 30.21 853 25.19 9.2 48.6 67 3.5 38.2
02:15 1024 30.24 853 25.19 9 48.2 68 3.4 38.1
02:20 1024 30.24 853 25.19 8.9 48.1 68 3.3 38
02:25 1024 30.24 853 25.19 8.9 48 68 3.3 38
02:30 1024 30.24 853 25.19 8.8 47.8 68 3.2 37.8
02:35 1024 30.24 853 25.19 8.9 48 67 3.2 37.7
02:40 1024 30.24 853 25.19 8.8 47.9 66 2.9 37.1
02:45 1024 30.24 853 25.19 9 48.1 64 2.6 36.6
02:50 1024 30.24 853 25.19 9.1 48.3 64 2.7 36.9
02:55 1024 30.24 853 25.19 8.8 47.8 65 2.7 36.8
03:00 1024 30.24 853 25.19 8.3 47 66 2.5 36.4
03:05 1024 30.24 853 25.19 8.5 47.4 63 2 35.6
03:10 1024 30.24 853 25.19 9.1 48.4 63 2.5 36.5
03:15 1024 30.24 853 25.19 9.4 48.8 63 2.8 37
03:20 1024 30.24 854 25.22 9.2 48.5 63 2.5 36.6
03:25 1024 30.24 854 25.22 8.8 47.9 64 2.5 36.5
03:30 1024 30.24 854 25.22 8.9 47.9 62 2.1 35.8
03:35 1024 30.24 854 25.22 8.8 47.8 64 2.4 36.3
03:40 1025 30.27 854 25.22 8.6 47.5 65 2.3 36.2
03:45 1025 30.27 854 25.22 8.6 47.6 65 2.4 36.3
03:50 1024 30.24 854 25.22 8.5 47.3 65 2.3 36.1
03:55 1024 30.24 854 25.22 8.7 47.6 63 2 35.7
04:00 1024 30.24 854 25.22 8.7 47.6 64 2.3 36.2
04:05 1024 30.24 854 25.22 8.6 47.5 64 2.2 36
04:10 1024 30.24 853 25.19 9 48.2 62 2.3 36.1
04:15 1024 30.24 853 25.19 9.2 48.5 63 2.4 36.4
04:20 1024 30.24 853 25.19 9.5 49.2 62 2.7 36.9
04:25 1024 30.24 853 25.19 9 48.2 67 3.3 38
04:30 1024 30.24 853 25.19 8.6 47.4 71 3.6 38.4
04:35 1024 30.24 853 25.19 8.4 47.1 72 3.7 38.7
04:40 1024 30.24 853 25.19 8.3 46.9 72 3.5 38.4
04:45 1024 30.24 853 25.19 8.2 46.8 71 3.4 38
04:50 1024 30.24 853 25.19 8.1 46.6 71 3.3 37.9
04:55 1024 30.24 853 25.19 8.2 46.7 70 3.1 37.6
05:00 1024 30.24 853 25.19 8.3 46.9 70 3.2 37.8
05:05 1024 30.24 853 25.19 8.4 47 70 3.2 37.8
05:10 1024 30.24 853 25.19 8.4 47.2 70 3.2 37.8
05:15 1024 30.24 853 25.19 8.6 47.4 70 3.5 38.2
05:20 1024 30.24 853 25.19 8.5 47.2 70 3.4 38
05:25 1024 30.24 853 25.19 8.5 47.2 70 3.4 38.1
05:30 1024 30.24 853 25.19 8.5 47.3 71 3.5 38.2
05:35 1024 30.24 853 25.19 8.3 46.9 71 3.3 38
05:40 1024 30.24 853 25.19 8.3 47 70 3.2 37.8
05:45 1024 30.24 853 25.19 8.5 47.3 70 3.3 37.9
05:50 1024 30.24 853 25.19 8.7 47.6 69 3.2 37.8
05:55 1024 30.24 853 25.19 8.8 47.9 68 3.3 38
06:00 1024 30.24 853 25.19 8.6 47.6 70 3.4 38.1
06:05 1024 30.24 853 25.19 8.4 47.1 71 3.4 38.2
06:10 1024 30.24 853 25.19 8.2 46.7 72 3.4 38.2
06:15 1024 30.24 853 25.19 8.1 46.6 72 3.3 38
06:20 1024 30.24 853 25.19 8.4 47 70 3.2 37.7
06:25 1024 30.24 853 25.19 8.5 47.4 70 3.3 38
06:30 1024 30.24 853 25.19 8.6 47.6 68 3.1 37.6
06:35 1024 30.24 853 25.19 8.9 48.1 67 3.1 37.6
06:40 1024 30.24 853 25.19 9.1 48.4 67 3.2 37.8
06:45 1024 30.24 853 25.19 9.2 48.5 66 3.2 37.8
06:50 1024 30.24 853 25.19 9.2 48.5 67 3.3 38
06:55 1024 30.24 853 25.19 9.1 48.4 67 3.2 37.8
07:00 1024 30.24 853 25.19 9.1 48.4 66 3.1 37.7
07:05 1024 30.24 853 25.19 9.3 48.7 65 3.1 37.7
07:10 1024 30.24 853 25.19 9.5 49 65 3.2 37.7
07:15 1024 30.24 853 25.19 9.5 49 65 3.2 37.7
07:20 1024 30.24 853 25.19 9.5 49 65 3.2 37.7
07:25 1024 30.24 853 25.19 9.6 49.2 64 3.1 37.7
07:30 1024 30.24 853 25.19 9.7 49.5 64 3.4 38.1
07:35 1024 30.24 853 25.19 9.8 49.6 63 3.2 37.7
07:40 1024 30.24 853 25.19 10 50 63 3.3 37.9
07:45 1024 30.24 853 25.19 10.4 50.7 61 3.3 38
07:50 1024 30.24 853 25.19 10.7 51.3 60 3.3 37.9
07:55 1024 30.24 853 25.19 11.3 52.4 58 3.5 38.3
08:00 1024 30.24 853 25.19 11.8 53.2 57 3.5 38.3
08:05 1024 30.24 853 25.19 12 53.6 55 3.4 38.1
08:10 1024 30.24 853 25.19 12.2 53.9 54 3.2 37.8
08:15 1024 30.24 853 25.19 12.7 54.8 52 3.2 37.8
08:20 1024 30.24 853 25.19 12.4 54.4 54 3.4 38
08:25 1024 30.24 853 25.19 12.2 54 53 3 37.4
08:30 1023 30.21 853 25.19 12.6 54.6 52 3.1 37.6
08:35 1023 30.21 853 25.19 12.9 55.1 52 3.2 37.8
08:40 1023 30.21 853 25.19 13.2 55.7 51 3.5 38.2
08:45 1023 30.21 852 25.16 13.3 56 50 3.3 37.9
08:50 1023 30.21 852 25.16 13.4 56.1 51 3.6 38.4
08:55 1023 30.21 852 25.16 13.6 56.5 50 3.4 38.1
09:00 1023 30.21 852 25.16 14.2 57.5 49 3.6 38.5
09:05 1023 30.21 852 25.16 14.2 57.5 49 3.6 38.4
09:10 1023 30.21 852 25.16 14.6 58.3 48 3.7 38.7
09:15 1023 30.21 852 25.16 14.7 58.5 46 3.2 37.7
09:20 1023 30.21 852 25.16 15 59 45 3.1 37.7
09:25 1023 30.21 852 25.16 15.2 59.4 44 3 37.4
09:30 1023 30.21 852 25.16 15.6 60.1 42 2.7 36.8
09:35 1023 30.21 852 25.16 16.7 62.1 39 2.8 37
09:40 1023 30.21 852 25.16 16.6 61.9 40 2.9 37.2
09:45 1023 30.21 852 25.16 16.5 61.6 39 2.6 36.8
09:50 1023 30.21 852 25.16 16.5 61.8 39 2.6 36.7
09:55 1023 30.21 852 25.16 16.8 62.3 39 2.8 37.1
10:00 1023 30.21 852 25.16 17.4 63.4 38 3.2 37.8
10:05 1023 30.21 852 25.16 17.8 64.1 36 2.5 36.5
10:10 1023 30.21 852 25.16 18.2 64.7 37 3.4 38
10:15 1023 30.21 852 25.16 18 64.4 36 3 37.3
10:20 1023 30.21 852 25.16 18.4 65.1 35 2.6 36.7
10:25 1023 30.21 852 25.16 19.1 66.4 33 2.5 36.5
10:30 1023 30.21 852 25.16 19 66.3 39 4.9 40.8
10:35 1022 30.18 852 25.16 18.5 65.4 40 4.9 40.7
10:40 1022 30.18 852 25.16 18.8 65.8 40 5.2 41.4
10:45 1022 30.18 852 25.16 18.5 65.3 41 5.2 41.3
10:50 1022 30.18 852 25.16 18.5 65.2 41 5 41
10:55 1022 30.18 852 25.16 18.7 65.6 39 4.6 40.3
11:00 1022 30.18 851 25.13 19.5 67.2 36 4.4 39.9
11:05 1022 30.18 851 25.13 19.6 67.3 36 4.1 39.5
11:10 1022 30.18 851 25.13 20 67.9 36 4.5 40
11:15 1022 30.18 851 25.13 19.5 67.1 37 4.5 40.1
11:20 1022 30.18 851 25.13 19 66.3 38 4.6 40.3
11:25 1022 30.18 851 25.13 19.5 67.2 34 3.4 38.1
11:30 1022 30.18 851 25.13 19.7 67.4 37 4.9 40.8
11:35 1022 30.18 851 25.13 20.1 68.1 35 4.4 39.9
11:40 1022 30.18 851 25.13 20.7 69.2 33 4 39.2
11:45 1022 30.18 851 25.13 21.3 70.3 34 5 41
11:50 1022 30.18 851 25.13 20.5 68.9 34 4.2 39.5
11:55 1022 30.18 851 25.13 20.7 69.2 35 4.7 40.4
12:00 1022 30.18 851 25.13 20.9 69.5 32 3.9 39
12:05 1022 30.18 851 25.13 20.3 68.6 34 4 39.2
12:10 1022 30.18 851 25.13 20.8 69.4 31 3.3 37.9
12:15 1021 30.15 851 25.13 20.7 69.2 30 2.8 37
12:20 1021 30.15 851 25.13 21.3 70.4 32 4 39.2
12:25 1021 30.15 851 25.13 22.3 72.1 28 2.9 37.2
12:30 1021 30.15 850 25.1 23.4 74.1 26 3 37.3
12:35 1021 30.15 850 25.1 23.4 74.1 25 2.6 36.7
12:40 1021 30.15 850 25.1 23.4 74.2 26 2.9 37.3
12:45 1021 30.15 850 25.1 22.1 71.8 26 2 35.7
12:50 1021 30.15 850 25.1 22.3 72.2 26 2 35.6
12:55 1021 30.15 850 25.1 23.7 74.6 23 1.3 34.3
13:00 1021 30.15 850 25.1 23.8 74.8 25 2.7 36.8
13:05 1021 30.15 850 25.1 23.1 73.6 24 1.5 34.7
13:10 1021 30.15 850 25.1 22.9 73.2 24 1.5 34.7
13:15 1021 30.15 850 25.1 23.1 73.6 23 1.2 34.2
13:20 1021 30.15 850 25.1 22.7 72.9 24 1.4 34.4
13:25 1021 30.15 850 25.1 22.8 73.1 23 0.6 33.1
13:30 1021 30.15 850 25.1 23.8 74.9 21 0.4 32.7
13:35 1021 30.15 850 25.1 24.1 75.3 21 0.7 33.3
13:40 1020 30.12 850 25.1 24.6 76.3 20 0.2 32.4
13:45 1020 30.12 850 25.1 24.5 76.1 21 1.3 34.3
13:50 1020 30.12 850 25.1 24.4 75.8 22 1.2 34.2
13:55 1020 30.12 850 25.1 24.3 75.7 19 -0.9 30.3
14:00 1020 30.12 849 25.07 24.9 76.7 18 -0.9 30.4
14:05 1020 30.12 849 25.07 25 77 18 -0.7 30.8
14:10 1020 30.12 849 25.07 24.6 76.3 20 0.2 32.3
14:15 1020 30.12 849 25.07 24.9 76.8 18 -1 30.3
14:20 1020 30.12 849 25.07 25.2 77.4 19 -0 31.9
14:25 1020 30.12 849 25.07 24.9 76.8 18 -0.5 31.2
14:30 1020 30.12 849 25.07 24.9 76.9 19 0 32.1
14:35 1020 30.12 849 25.07 25.2 77.3 17 -1.1 30.1
14:40 1020 30.12 849 25.07 25.5 77.8 16 -1.5 29.2
14:45 1020 30.12 849 25.07 25.6 78.2 18 -0.5 31
14:50 1020 30.12 849 25.07 25.8 78.4 17 -1.3 29.7
14:55 1019 30.09 849 25.07 26.2 79.1 15 -2.1 28.2
15:00 1019 30.09 849 25.07 25.3 77.5 17 -1.2 29.9
15:05 1019 30.09 848 25.04 25.7 78.2 15 -2.2 28
15:10 1019 30.09 848 25.04 25.6 78 17 -1.1 29.9
15:15 1019 30.09 848 25.04 24.6 76.2 18 -1 30.2
15:20 1019 30.09 848 25.04 24.9 76.8 19 -0.2 31.6
15:25 1019 30.09 848 25.04 24.7 76.5 18 -0.7 30.7
15:30 1019 30.09 848 25.04 24.4 76 19 -0.2 31.6
15:35 1019 30.09 848 25.04 23.9 75 21 0.6 33
15:40 1019 30.09 848 25.04 23.2 73.8 22 0.6 33
15:45 1019 30.09 848 25.04 22.9 73.2 23 0.8 33.4
15:50 1019 30.09 848 25.04 22.6 72.6 23 0.6 33.1
15:55 1019 30.09 848 25.04 22.6 72.6 24 1.1 33.9
16:00 1019 30.09 848 25.04 22.5 72.4 25 1.8 35.2
16:05 1019 30.09 848 25.04 22.3 72.1 24 0.9 33.7
16:10 1019 30.09 848 25.04 21.9 71.5 25 1.1 34
16:15 1019 30.09 848 25.04 22 71.6 25 1 33.8
16:20 1019 30.09 848 25.04 22 71.5 26 1.5 34.7
16:25 1019 30.09 848 25.04 21.8 71.2 26 1.7 35.1
16:30 1019 30.09 848 25.04 21.5 70.7 26 1.4 34.6
16:35 1019 30.09 848 25.04 21.4 70.5 27 1.6 34.9
16:40 1019 30.09 848 25.04 21.5 70.8 26 1.6 34.8
16:45 1019 30.09 848 25.04 21.7 71 22 -0.6 30.9
16:50 1019 30.09 848 25.04 21.4 70.5 22 -0.7 30.7
16:55 1019 30.09 848 25.04 20.7 69.3 24 -0.5 31.1
17:00 1019 30.09 848 25.04 20.4 68.8 25 0 32
17:05 1019 30.09 848 25.04 20.3 68.6 24 -0.9 30.4
17:10 1019 30.09 848 25.04 20.3 68.6 24 -0.7 30.8
17:15 1019 30.09 848 25.04 20.1 68.2 25 -0.1 31.8
17:20 1019 30.09 848 25.04 19.9 67.8 26 -0.2 31.6
17:25 1019 30.09 848 25.04 19.9 67.8 26 -0.2 31.6
17:30 1018 30.06 848 25.04 20.1 68.1 25 -0.2 31.7
17:35 1018 30.06 848 25.04 20.2 68.4 25 -0.2 31.6
17:40 1018 30.06 848 25.04 20.6 69.1 24 -0.3 31.5
17:45 1018 30.06 848 25.04 20.5 68.9 25 -0.1 31.9
17:50 1018 30.06 848 25.04 20.5 68.9 26 0.3 32.6
17:55 1018 30.06 848 25.04 20.7 69.3 25 0.3 32.6
18:00 1018 30.06 848 25.04 20.7 69.3 24 -0.7 30.8
18:05 1018 30.06 848 25.04 20.7 69.2 25 0.2 32.3
18:10 1019 30.09 848 25.04 20.4 68.7 26 0.6 33.1
18:15 1019 30.09 848 25.04 20.1 68.2 28 1.3 34.4
18:20 1019 30.09 848 25.04 19.8 67.6 31 2.2 36
18:25 1019 30.09 848 25.04 19.2 66.6 33 2.6 36.7
18:30 1019 30.09 848 25.04 19 66.1 33 2.4 36.4
18:35 1018 30.06 848 25.04 18.8 65.8 35 3 37.4
18:40 1018 30.06 847 25.01 18.5 65.3 36 3.3 37.9
18:45 1018 30.06 847 25.01 18.3 65 33 1.9 35.4
18:50 1018 30.06 847 25.01 18.5 65.2 34 2.5 36.5
18:55 1018 30.06 847 25.01 18.3 64.9 37 3.5 38.3
19:00 1018 30.06 847 25.01 17.8 64.1 39 3.6 38.6
19:05 1018 30.06 847 25.01 17.7 63.9 38 3.2 37.7
19:10 1018 30.06 847 25.01 17.7 63.8 37 3 37.4
19:15 1018 30.06 847 25.01 17.8 64 36 2.7 36.9
19:20 1018 30.06 847 25.01 17.7 63.8 37 3.1 37.5
19:25 1018 30.06 847 25.01 17.5 63.5 37 2.8 37.1
19:30 1018 30.06 847 25.01 17.4 63.3 38 3 37.4
19:35 1018 30.06 847 25.01 17.2 62.9 38 2.8 37.1
19:40 1018 30.06 847 25.01 17.2 62.9 37 2.6 36.7
19:45 1018 30.06 847 25.01 17.2 63 37 2.7 36.8
19:50 1018 30.06 847 25.01 17.2 63 38 2.8 37.1
19:55 1018 30.06 847 25.01 17 62.7 40 3.4 38
20:00 1018 30.06 847 25.01 16.7 62.1 41 3.7 38.6
20:05 1018 30.06 847 25.01 16.5 61.8 42 3.8 38.9
20:10 1018 30.06 847 25.01 16.4 61.6 42 3.5 38.3
20:15 1018 30.06 847 25.01 16.5 61.6 41 3.4 38.1
20:20 1018 30.06 847 25.01 16.4 61.5 42 3.5 38.3
20:25 1018 30.06 847 25.01 16.4 61.4 42 3.6 38.4
20:30 1018 30.06 847 25.01 16.2 61.1 44 3.9 39
20:35 1018 30.06 847 25.01 16 60.8 44 3.8 38.9
20:40 1018 30.06 847 25.01 15.9 60.7 43 3.5 38.3
20:45 1018 30.06 847 25.01 16.1 61 42 3.4 38.1
20:50 1018 30.06 847 25.01 16.1 60.9 42 3.2 37.8
20:55 1018 30.06 847 25.01 16.1 61 42 3.1 37.6
21:00 1018 30.06 847 25.01 16.1 61 41 3.1 37.6
21:05 1018 30.06 847 25.01 16.1 60.9 42 3.2 37.7
21:10 1018 30.06 847 25.01 16 60.7 42 3.3 38
21:15 1018 30.06 847 25.01 15.9 60.7 42 3 37.4
21:20 1018 30.06 847 25.01 16 60.8 42 3.1 37.5
21:25 1018 30.06 847 25.01 16 60.7 42 3.1 37.6
21:30 1018 30.06 847 25.01 16 60.7 42 3.1 37.5
21:35 1018 30.06 847 25.01 15.9 60.6 41 2.9 37.3
21:40 1018 30.06 847 25.01 15.9 60.5 42 2.9 37.3
21:45 1018 30.06 847 25.01 16 60.8 41 2.7 36.8
21:50 1018 30.06 847 25.01 16 60.9 42 3.3 37.9
21:55 1018 30.06 847 25.01 15.8 60.4 44 3.6 38.4
22:00 1019 30.09 848 25.04 15.7 60.2 44 3.5 38.3
22:05 1020 30.12 849 25.07 15.8 60.5 42 3.2 37.7
22:10 1021 30.15 850 25.1 15.8 60.5 57 7.5 45.5
22:15 1021 30.15 850 25.1 13.8 56.8 61 6.4 43.6
22:20 1021 30.15 850 25.1 13.9 57.1 52 4.2 39.5
22:25 1021 30.15 850 25.1 14.3 57.7 57 5.9 42.6
22:30 1021 30.15 850 25.1 14 57.3 65 7.6 45.7
22:35 1021 30.15 850 25.1 12.9 55.3 70 7.6 45.6
22:40 1021 30.15 850 25.1 12.3 54.2 74 7.9 46.2
22:45 1021 30.15 850 25.1 12.3 54.1 68 6.7 44
22:50 1021 30.15 850 25.1 12.8 55 64 6.2 43.2
22:55 1021 30.15 850 25.1 12.9 55.1 65 6.5 43.7
23:00 1020 30.12 850 25.1 12.9 55.3 66 6.7 44.1
23:05 1020 30.12 849 25.07 12.8 55 66 6.5 43.8
23:10 1020 30.12 849 25.07 13.1 55.6 58 5.1 41.1
23:15 1020 30.12 849 25.07 13.5 56.3 60 6 42.8
23:20 1020 30.12 849 25.07 13.2 55.8 64 6.6 43.8
23:25 1020 30.12 849 25.07 13 55.4 62 5.9 42.6
23:30 1019 30.09 848 25.04 13.1 55.5 63 6.1 43.1
23:35 1019 30.09 848 25.04 13 55.4 61 5.6 42.1
23:40 1019 30.09 848 25.04 13.1 55.6 62 6 42.7
23:45 1019 30.09 848 25.04 13 55.4 62 5.9 42.7
23:50 1019 30.09 848 25.04 13 55.3 67 7.1 44.8
23:55 1019 30.09 848 25.04 12.9 55.3 68 7.3 45.1
24:00 1019 30.09 848 25.04 12.9 55.2 67 7 44.6